Time;durP1;ratioP1;P1;durP2;ratioP2;P2;SDS_P1;SDS_P2;PMS_P1;PMS_P2;Temp;Humidity;BMP_temperature;BMP_pressure;BME280_temperature;BME280_humidity;BME280_pressure;Samples;Min_cycle;Max_cycle;Signal;HPM_P1;HPM_P2
2022/01/02 00:00:41;;;;;;;8.55;7.35;;;;;;;9.74;69.84;101158.44;4997387;28;102141;-51
2022/01/02 00:03:19;;;;;;;11.52;8.13;;;;;;;9.75;69.36;101157.34;4991264;28;104100;-45
2022/01/02 00:05:45;;;;;;;9.23;7.63;;;;;;;9.75;68.74;101159.25;4981199;28;102162;-46
2022/01/02 00:08:12;;;;;;;9.82;7.68;;;;;;;9.75;69.41;101165.50;4977570;28;102261;-46
2022/01/02 00:10:47;;;;;;;8.27;6.90;;;;;;;9.75;68.95;101170.94;4978361;28;102511;-46
2022/01/02 00:13:22;;;;;;;9.07;7.00;;;;;;;9.74;69.45;101174.72;4978994;28;103971;-45
2022/01/02 00:15:52;;;;;;;9.05;7.38;;;;;;;9.75;69.72;101170.94;4994501;28;102284;-46
2022/01/02 00:18:27;;;;;;;9.30;7.30;;;;;;;9.75;69.06;101175.56;4964121;28;102423;-46
2022/01/02 00:20:59;;;;;;;9.38;7.60;;;;;;;9.75;69.34;101179.09;4989340;28;102144;-47
2022/01/02 00:23:30;;;;;;;8.52;6.80;;;;;;;9.75;69.53;101181.81;4977615;28;103670;-45
2022/01/02 00:26:04;;;;;;;7.82;7.03;;;;;;;9.75;68.95;101181.00;4976558;28;101996;-49
2022/01/02 00:28:32;;;;;;;9.43;7.10;;;;;;;9.75;68.96;101181.81;4980419;28;102055;-48
2022/01/02 00:30:59;;;;;;;9.60;7.20;;;;;;;9.74;69.55;101190.22;4997478;28;102145;-48
2022/01/02 00:33:27;;;;;;;8.13;6.55;;;;;;;9.75;69.32;101198.13;4997273;28;103915;-47
2022/01/02 00:35:55;;;;;;;8.70;6.53;;;;;;;9.75;69.80;101194.56;4993117;28;102243;-47
2022/01/02 00:38:22;;;;;;;8.02;6.10;;;;;;;9.75;69.49;101203.56;4995492;28;102037;-47
2022/01/02 00:40:50;;;;;;;8.77;6.35;;;;;;;9.75;68.96;101203.56;4996658;28;102195;-48
2022/01/02 00:43:22;;;;;;;9.15;6.95;;;;;;;9.75;69.46;101209.00;4996335;28;103755;-48
2022/01/02 00:45:51;;;;;;;9.18;6.75;;;;;;;9.75;68.93;101205.44;4992446;28;103710;-46
2022/01/02 00:48:22;;;;;;;7.83;6.80;;;;;;;9.75;69.11;101206.28;4990793;28;102756;-45
2022/01/02 00:50:51;;;;;;;8.30;6.68;;;;;;;9.75;69.07;101202.72;4996978;28;104018;-47
2022/01/02 00:53:24;;;;;;;7.72;6.15;;;;;;;9.74;68.89;101207.34;4996588;28;104057;-49
2022/01/02 00:55:56;;;;;;;7.93;6.38;;;;;;;9.75;68.93;101219.03;4992612;28;102073;-49
2022/01/02 00:58:30;;;;;;;6.93;6.05;;;;;;;9.73;69.44;101216.56;4996550;28;102086;-48
2022/01/02 01:00:59;;;;;;;9.77;6.03;;;;;;;9.75;69.19;101216.31;4997395;28;102153;-47
2022/01/02 01:03:30;;;;;;;8.30;6.25;;;;;;;9.74;69.41;101215.50;4996632;28;104124;-45
2022/01/02 01:06:03;;;;;;;7.80;5.97;;;;;;;9.74;68.92;101226.38;4993871;28;102185;-45
2022/01/02 01:08:30;;;;;;;7.68;5.93;;;;;;;9.75;69.27;101224.47;4996305;28;102227;-49
2022/01/02 01:10:59;;;;;;;7.82;5.82;;;;;;;9.74;69.12;101234.53;4996956;28;102188;-48
2022/01/02 01:13:26;;;;;;;7.22;5.65;;;;;;;9.74;69.24;101231.81;4979619;28;103984;-48
2022/01/02 01:15:52;;;;;;;6.65;5.47;;;;;;;9.74;68.94;101234.53;4994655;28;102183;-49
2022/01/02 01:18:19;;;;;;;7.30;5.95;;;;;;;9.74;69.46;101239.97;4998686;28;101905;-48
2022/01/02 01:20:46;;;;;;;7.60;5.78;;;;;;;9.74;69.66;101239.16;4998850;28;102082;-46
2022/01/02 01:23:17;;;;;;;7.18;5.85;;;;;;;9.75;69.67;101254.38;4999845;28;103964;-46
2022/01/02 01:25:46;;;;;;;6.85;5.50;;;;;;;9.75;68.96;101260.63;4998249;28;102004;-48
2022/01/02 01:28:13;;;;;;;8.65;5.70;;;;;;;9.73;68.98;101246.47;4997072;28;102118;-46
2022/01/02 01:30:39;;;;;;;7.88;5.88;;;;;;;9.73;69.43;101260.03;4974132;28;102241;-46
2022/01/02 01:33:06;;;;;;;6.25;5.60;;;;;;;9.74;69.52;101267.16;4997606;28;103975;-48
2022/01/02 01:35:32;;;;;;;6.50;5.43;;;;;;;9.74;69.42;101264.44;4999701;28;102004;-49
2022/01/02 01:37:59;;;;;;;6.75;5.40;;;;;;;9.75;69.12;101270.69;4966075;28;102965;-48
2022/01/02 01:40:33;;;;;;;6.38;5.38;;;;;;;9.74;69.86;101267.16;4982443;28;102977;-45
2022/01/02 01:43:02;;;;;;;6.45;5.32;;;;;;;9.73;68.96;101270.91;4996150;28;103976;-46
2022/01/02 01:45:30;;;;;;;6.40;5.50;;;;;;;9.75;69.53;101278.84;4998832;28;102135;-48
2022/01/02 01:48:02;;;;;;;6.60;5.43;;;;;;;9.74;69.23;101278.03;4999274;28;102343;-46
2022/01/02 01:50:30;;;;;;;6.72;5.40;;;;;;;9.74;69.45;101283.47;4997608;28;102214;-46
2022/01/02 01:52:57;;;;;;;6.90;5.20;;;;;;;9.73;68.90;101281.78;4998495;28;103836;-47
2022/01/02 01:55:26;;;;;;;6.75;5.05;;;;;;;9.74;68.89;101282.63;4997716;28;103864;-49
2022/01/02 01:57:52;;;;;;;6.55;5.15;;;;;;;9.73;69.43;101287.22;4998146;28;102283;-47
2022/01/02 02:00:20;;;;;;;5.80;5.05;;;;;;;9.73;69.53;101298.09;4997787;28;102171;-48
2022/01/02 02:02:48;;;;;;;7.15;5.05;;;;;;;9.74;68.97;101294.34;4997213;28;104082;-46
2022/01/02 02:05:15;;;;;;;6.18;5.10;;;;;;;9.74;68.93;101302.50;4996296;28;102286;-46
2022/01/02 02:07:43;;;;;;;6.03;4.78;;;;;;;9.74;69.11;101297.03;4997849;28;102193;-46
2022/01/02 02:10:14;;;;;;;5.30;4.55;;;;;;;9.75;69.46;101303.31;4989652;28;102190;-49
2022/01/02 02:12:44;;;;;;;6.20;5.22;;;;;;;9.73;68.97;101300.81;4998591;28;104867;-47
2022/01/02 02:15:13;;;;;;;6.40;4.95;;;;;;;9.73;69.32;101300.81;4997762;28;102840;-47
2022/01/02 02:17:40;;;;;;;5.82;4.78;;;;;;;9.74;68.97;101317.97;4997484;28;102440;-49
2022/01/02 02:20:13;;;;;;;4.95;4.45;;;;;;;9.74;68.99;101313.34;4998680;28;102261;-48
2022/01/02 02:22:42;;;;;;;6.25;4.50;;;;;;;9.73;69.27;101314.41;4998175;28;104581;-48
2022/01/02 02:25:10;;;;;;;5.55;4.63;;;;;;;9.74;69.56;101320.69;4997903;28;101923;-49
2022/01/02 02:27:39;;;;;;;5.60;4.43;;;;;;;9.74;69.59;101316.06;4998652;28;102182;-49
2022/01/02 02:30:07;;;;;;;6.55;4.90;;;;;;;9.74;69.70;101320.69;4998944;28;104154;-47
2022/01/02 02:32:34;;;;;;;5.05;4.35;;;;;;;9.73;69.30;101330.72;4997691;28;103714;-47
2022/01/02 02:35:01;;;;;;;5.57;4.45;;;;;;;9.74;69.26;101331.56;5001649;28;101872;-47
2022/01/02 02:37:30;;;;;;;4.97;4.22;;;;;;;9.74;69.41;101332.38;4999841;28;102267;-46
2022/01/02 02:39:56;;;;;;;5.13;4.20;;;;;;;9.73;69.61;101341.59;4999848;28;101337;-46
2022/01/02 02:42:33;;;;;;;5.70;4.22;;;;;;;9.73;69.70;101347.03;4999680;28;104317;-46
2022/01/02 02:48:58;;;;;;;4.93;4.28;;;;;;;9.73;69.65;101341.59;5000205;28;101939;-45
2022/01/02 02:50:44;;;;;;;5.60;4.30;;;;;;;9.74;69.24;101347.88;4988031;28;102198;-48
2022/01/02 02:53:12;;;;;;;5.03;4.22;;;;;;;9.73;69.41;101355.19;4978260;28;104184;-46
2022/01/02 02:55:44;;;;;;;5.93;4.22;;;;;;;9.73;69.24;101355.19;4997343;28;102086;-49
2022/01/02 02:58:38;;;;;;;5.20;4.18;;;;;;;9.73;69.23;101357.91;4994793;28;102516;-46
2022/01/02 03:00:57;;;;;;;4.80;4.07;;;;;;;9.73;69.13;101355.19;5000029;28;101983;-49
2022/01/02 03:03:23;;;;;;;4.43;3.72;;;;;;;9.73;69.38;101363.34;4998321;28;103929;-48
2022/01/02 03:05:50;;;;;;;5.03;4.07;;;;;;;9.74;69.80;101358.75;4998516;28;102039;-49
2022/01/02 03:08:18;;;;;;;4.38;3.83;;;;;;;9.73;69.80;101371.50;4997388;28;102255;-49
2022/01/02 03:10:45;;;;;;;4.15;3.65;;;;;;;9.73;69.45;101366.06;4998081;28;102368;-49
2022/01/02 03:13:12;;;;;;;4.43;3.60;;;;;;;9.74;69.29;101364.19;4995816;28;103831;-46
2022/01/02 03:15:38;;;;;;;4.70;3.75;;;;;;;9.73;69.30;101374.22;4997683;28;102061;-49
2022/01/02 03:18:05;;;;;;;4.22;3.63;;;;;;;9.73;69.50;101371.50;4998204;28;102240;-47
2022/01/02 03:20:31;;;;;;;4.97;4.15;;;;;;;9.74;69.75;101381.31;4999031;28;102213;-49
2022/01/02 03:22:58;;;;;;;4.20;3.33;;;;;;;9.74;69.65;101380.50;4974393;28;103872;-47
2022/01/02 03:25:26;;;;;;;3.80;3.42;;;;;;;9.74;69.48;101391.38;4976179;28;102650;-47
2022/01/02 03:27:52;;;;;;;4.05;3.60;;;;;;;9.75;69.20;101398.44;4979677;28;102034;-47
2022/01/02 03:30:18;;;;;;;4.50;3.60;;;;;;;9.74;69.38;101402.25;4977861;28;102129;-49
2022/01/02 03:32:45;;;;;;;3.80;3.25;;;;;;;9.74;69.43;101413.13;4969677;28;103898;-49
2022/01/02 03:35:12;;;;;;;4.40;3.47;;;;;;;9.74;69.62;101419.38;4976088;28;102790;-46
2022/01/02 03:37:38;;;;;;;5.05;3.70;;;;;;;9.73;69.71;101431.28;4959761;28;102442;-48
2022/01/02 03:40:07;;;;;;;3.90;3.17;;;;;;;9.74;69.01;101435.69;4976233;28;102130;-45
2022/01/02 03:42:39;;;;;;;4.13;3.03;;;;;;;9.74;68.97;101440.28;4977722;28;103922;-48
2022/01/02 03:45:07;;;;;;;3.53;2.93;;;;;;;9.74;69.01;101446.53;4976792;28;102675;-45
2022/01/02 03:47:35;;;;;;;3.75;3.25;;;;;;;9.74;69.26;101451.97;4976262;28;101979;-46
2022/01/02 03:50:03;;;;;;;3.33;3.03;;;;;;;9.74;68.83;101457.41;4977524;28;102150;-45
2022/01/02 03:52:30;;;;;;;3.38;3.08;;;;;;;9.74;69.13;101454.69;4976472;28;104034;-48
2022/01/02 03:54:57;;;;;;;3.95;3.15;;;;;;;9.74;69.31;101459.31;4976066;28;102500;-49
2022/01/02 03:57:24;;;;;;;3.40;3.10;;;;;;;9.74;68.95;101459.31;4975722;28;102605;-47
2022/01/02 03:59:51;;;;;;;3.42;2.95;;;;;;;9.74;69.77;101462.03;4969414;28;102313;-48
2022/01/02 04:02:18;;;;;;;3.35;3.05;;;;;;;9.74;69.71;101467.47;4975935;28;103959;-49
2022/01/02 04:04:45;;;;;;;3.38;2.90;;;;;;;9.73;69.36;101461.19;4976915;28;102098;-47
2022/01/02 04:07:11;;;;;;;3.78;3.20;;;;;;;9.74;69.15;101471.00;4975916;28;102459;-47
2022/01/02 04:09:38;;;;;;;3.85;2.92;;;;;;;9.72;69.53;101473.13;4976079;28;102135;-48
2022/01/02 04:12:05;;;;;;;3.13;2.80;;;;;;;9.73;69.29;101487.56;4976113;28;103674;-46
2022/01/02 04:14:31;;;;;;;4.32;3.08;;;;;;;9.73;69.69;101485.66;4975710;28;102411;-45
2022/01/02 04:17:00;;;;;;;3.15;2.60;;;;;;;9.73;69.63;101485.66;4964905;28;102094;-47
2022/01/02 04:19:27;;;;;;;2.95;2.60;;;;;;;9.74;69.34;101487.31;4966634;28;102114;-47
2022/01/02 04:21:55;;;;;;;2.75;2.42;;;;;;;9.73;69.74;101499.25;4985681;28;103784;-48
2022/01/02 04:24:21;;;;;;;2.85;2.55;;;;;;;9.73;68.89;101501.97;4995727;28;102709;-46
2022/01/02 04:26:48;;;;;;;2.65;2.42;;;;;;;9.72;69.35;101507.66;4993290;28;102256;-46
2022/01/02 04:29:14;;;;;;;4.30;2.60;;;;;;;9.71;69.29;101517.72;4996877;28;102565;-48
2022/01/02 04:31:40;;;;;;;2.83;2.33;;;;;;;9.72;69.16;101530.22;4994001;28;103575;-49
2022/01/02 04:34:08;;;;;;;3.70;2.80;;;;;;;9.71;69.19;101528.59;4994526;28;102126;-46
2022/01/02 04:36:35;;;;;;;2.83;2.45;;;;;;;9.71;69.43;101539.44;4993891;28;102107;-50
2022/01/02 04:39:02;;;;;;;2.40;2.20;;;;;;;9.71;68.84;101544.88;4996993;28;102150;-46
2022/01/02 04:41:28;;;;;;;2.65;2.22;;;;;;;9.71;69.46;101544.88;4986149;28;103945;-46
2022/01/02 04:43:55;;;;;;;2.60;2.13;;;;;;;9.71;69.57;101552.22;4996130;28;102525;-46
2022/01/02 04:46:21;;;;;;;2.65;2.20;;;;;;;9.70;69.43;101559.56;4994451;28;102194;-48
2022/01/02 04:48:47;;;;;;;2.20;1.90;;;;;;;9.71;69.67;101557.66;4981478;28;102393;-45
2022/01/02 04:51:15;;;;;;;2.05;1.80;;;;;;;9.69;69.23;101559.78;4977698;28;103709;-47
2022/01/02 04:53:47;;;;;;;2.10;1.80;;;;;;;9.69;69.61;101566.03;4995045;28;102219;-45
2022/01/02 04:56:14;;;;;;;1.90;1.73;;;;;;;9.68;69.19;101569.84;4993206;28;102137;-47
2022/01/02 04:58:40;;;;;;;2.30;1.70;;;;;;;9.68;69.20;101567.13;4994272;28;102331;-48
2022/01/02 05:01:14;;;;;;;2.08;1.77;;;;;;;9.68;68.54;101578.00;4974288;28;103973;-47
2022/01/02 05:03:41;;;;;;;1.80;1.70;;;;;;;9.69;69.58;101595.94;4995106;28;101857;-45
2022/01/02 05:06:07;;;;;;;1.98;1.80;;;;;;;9.68;69.30;101572.56;4994567;28;102594;-49
2022/01/02 05:08:36;;;;;;;2.78;1.98;;;;;;;9.67;68.74;101576.34;4969358;28;102870;-48
2022/01/02 05:11:03;;;;;;;1.98;1.60;;;;;;;9.68;68.79;101579.88;4987075;28;104027;-48
2022/01/02 05:13:30;;;;;;;1.80;1.60;;;;;;;9.67;68.42;101576.34;4994543;28;102116;-49
2022/01/02 05:15:56;;;;;;;2.03;1.83;;;;;;;9.67;69.31;101576.34;4995655;28;102059;-47
2022/01/02 05:18:22;;;;;;;2.88;1.45;;;;;;;9.66;68.58;101590.97;4995069;28;102542;-46
2022/01/02 05:20:49;;;;;;;1.60;1.48;;;;;;;9.66;69.28;101590.97;4975295;28;103917;-48
2022/01/02 05:23:16;;;;;;;1.75;1.63;;;;;;;9.66;69.24;101593.69;4994982;28;102351;-46
2022/01/02 05:25:44;;;;;;;2.20;1.63;;;;;;;9.65;68.94;101602.94;4995012;28;102520;-50
2022/01/02 05:28:12;;;;;;;1.48;1.38;;;;;;;9.64;68.90;101609.44;4994886;28;102541;-47
2022/01/02 05:30:40;;;;;;;2.08;1.42;;;;;;;9.65;68.71;101602.94;4994924;28;103865;-48
2022/01/02 05:33:07;;;;;;;1.50;1.40;;;;;;;9.65;68.52;101615.69;4994469;28;102109;-49
2022/01/02 05:35:34;;;;;;;2.05;1.48;;;;;;;9.64;68.89;101617.59;4995123;28;102722;-46
2022/01/02 05:38:01;;;;;;;1.33;1.20;;;;;;;9.63;69.23;101622.22;4993700;28;102165;-47
2022/01/02 05:40:32;;;;;;;1.70;1.60;;;;;;;9.64;68.89;101623.03;4984817;28;103875;-46
2022/01/02 05:43:01;;;;;;;2.13;1.45;;;;;;;9.63;68.57;101633.09;4994671;28;102816;-49
2022/01/02 05:45:31;;;;;;;1.70;1.60;;;;;;;9.65;69.00;101627.41;4996460;28;102324;-47
2022/01/02 05:47:57;;;;;;;1.58;1.33;;;;;;;9.63;69.21;101624.13;4997606;28;102393;-47
2022/01/02 05:50:24;;;;;;;2.03;1.38;;;;;;;9.63;68.93;101624.13;4974501;28;103764;-46
2022/01/02 05:52:50;;;;;;;1.52;1.40;;;;;;;9.62;69.22;101631.41;4997143;28;102063;-47
2022/01/02 05:55:17;;;;;;;1.33;1.17;;;;;;;9.64;68.41;101639.34;4995875;28;102642;-46
2022/01/02 05:57:44;;;;;;;1.80;1.50;;;;;;;9.63;68.84;101634.97;4996821;28;102832;-49
2022/01/02 06:00:12;;;;;;;2.22;1.20;;;;;;;9.64;68.62;101647.50;4974751;28;103719;-47
2022/01/02 06:02:40;;;;;;;1.85;1.38;;;;;;;9.65;69.21;101660.00;4996045;28;102068;-48
2022/01/02 06:05:08;;;;;;;1.50;1.40;;;;;;;9.63;68.37;101651.28;4980385;28;102971;-46
2022/01/02 06:07:36;;;;;;;1.70;1.30;;;;;;;9.64;68.77;101669.25;5000801;28;102167;-45
2022/01/02 06:10:04;;;;;;;1.50;1.40;;;;;;;9.63;68.74;101667.59;4996740;28;104526;-49
2022/01/02 06:12:31;;;;;;;1.67;1.30;;;;;;;9.64;69.09;101680.13;4997447;28;102395;-46
2022/01/02 06:14:57;;;;;;;1.55;1.20;;;;;;;9.63;69.22;101673.84;4998049;28;102007;-46
2022/01/02 06:17:25;;;;;;;1.55;1.20;;;;;;;9.63;69.06;101683.91;4998189;28;102808;-50
2022/01/02 06:19:52;;;;;;;1.42;1.33;;;;;;;9.63;68.96;101690.16;4994947;28;103938;-48
2022/01/02 06:22:18;;;;;;;1.65;1.10;;;;;;;9.63;69.31;101695.59;4976499;28;102392;-47
2022/01/02 06:24:45;;;;;;;1.50;1.27;;;;;;;9.63;69.24;101700.22;4979245;28;101840;-47
2022/01/02 06:27:12;;;;;;;1.17;1.08;;;;;;;9.64;68.53;101704.56;4978344;28;102153;-48
2022/01/02 06:29:38;;;;;;;1.40;1.10;;;;;;;9.63;68.99;101705.66;4976173;28;103974;-47
2022/01/02 06:32:04;;;;;;;1.58;1.00;;;;;;;9.64;68.34;101701.84;4978833;28;102045;-46
2022/01/02 06:34:33;;;;;;;1.17;1.02;;;;;;;9.63;68.91;101703.75;4977805;28;101996;-46
2022/01/02 06:36:59;;;;;;;1.30;1.17;;;;;;;9.63;68.35;101705.66;4975047;28;102665;-48
2022/01/02 06:39:26;;;;;;;1.23;1.05;;;;;;;9.63;68.76;101706.47;4973184;28;103655;-49
2022/01/02 06:41:52;;;;;;;1.23;1.10;;;;;;;9.62;68.92;101707.50;4976362;28;102628;-46
2022/01/02 06:44:19;;;;;;;1.48;1.00;;;;;;;9.63;68.36;101716.53;4977578;28;102100;-47
2022/01/02 06:46:48;;;;;;;2.33;1.48;;;;;;;9.64;68.56;101723.59;4969003;28;102687;-46
2022/01/02 06:49:14;;;;;;;1.63;1.10;;;;;;;9.62;68.40;101721.09;4971347;28;103883;-48
2022/01/02 06:51:42;;;;;;;1.67;1.23;;;;;;;9.64;68.23;101729.03;4977982;28;102005;-49
2022/01/02 06:54:09;;;;;;;1.73;1.10;;;;;;;9.63;68.56;101738.25;4966978;28;104111;-49
2022/01/02 06:56:35;;;;;;;1.40;1.02;;;;;;;9.65;68.82;101738.00;4975584;28;102171;-47
2022/01/02 06:59:01;;;;;;;2.30;1.20;;;;;;;9.63;68.21;101728.22;4974306;28;103777;-46
2022/01/02 07:01:28;;;;;;;1.80;0.90;;;;;;;9.64;68.29;101737.19;4975373;28;102168;-48
2022/01/02 07:03:54;;;;;;;1.30;0.95;;;;;;;9.63;68.98;101749.13;4963422;28;102509;-48
2022/01/02 07:06:21;;;;;;;1.70;1.00;;;;;;;9.62;69.07;101750.19;4970893;28;102206;-48
2022/01/02 07:08:49;;;;;;;6.90;1.50;;;;;;;9.64;68.61;101756.22;4968236;28;104085;-47
2022/01/02 07:11:17;;;;;;;1.65;1.17;;;;;;;9.62;68.59;101755.63;4968659;28;102379;-47
2022/01/02 07:13:44;;;;;;;2.83;1.00;;;;;;;9.63;68.31;101755.41;4970181;28;102330;-47
2022/01/02 07:16:11;;;;;;;1.23;0.90;;;;;;;9.64;68.66;101756.22;4973414;28;102634;-48
2022/01/02 07:18:37;;;;;;;1.10;0.85;;;;;;;9.65;69.23;101751.59;4970676;28;103692;-49
2022/01/02 07:21:04;;;;;;;2.40;0.93;;;;;;;9.64;68.31;101761.66;4972075;28;102087;-48
2022/01/02 07:23:31;;;;;;;2.45;1.33;;;;;;;9.66;68.29;101772.28;4988229;28;103502;-54
2022/01/02 07:25:59;;;;;;;2.88;1.08;;;;;;;9.65;68.69;101779.59;4990330;28;104256;-46
2022/01/02 07:28:25;;;;;;;1.17;0.93;;;;;;;9.66;68.34;101781.25;4987479;28;104348;-49
2022/01/02 07:30:52;;;;;;;1.50;1.08;;;;;;;9.65;68.58;101779.59;4981505;28;102108;-48
2022/01/02 07:33:18;;;;;;;1.38;0.98;;;;;;;9.66;68.32;101780.41;4970564;28;102628;-48
2022/01/02 07:35:45;;;;;;;0.88;0.80;;;;;;;9.66;69.11;101785.84;4992918;28;103911;-47
2022/01/02 07:38:11;;;;;;;1.38;1.05;;;;;;;9.67;69.07;101791.06;4992593;28;104048;-48
2022/01/02 07:40:37;;;;;;;2.17;1.10;;;;;;;9.67;68.79;101791.06;4974785;28;103319;-46
2022/01/02 07:43:05;;;;;;;1.00;0.80;;;;;;;9.67;68.92;101799.22;4992356;28;102707;-46
2022/01/02 07:45:31;;;;;;;0.80;0.80;;;;;;;9.67;68.09;101795.69;5000184;28;102324;-47
2022/01/02 07:47:58;;;;;;;0.80;0.80;;;;;;;9.66;68.77;101800.28;4996845;28;103137;-46
2022/01/02 07:50:24;;;;;;;2.55;1.33;;;;;;;9.67;68.38;101801.13;4997338;28;102598;-48
2022/01/02 07:52:52;;;;;;;1.10;0.80;;;;;;;9.67;69.13;101804.66;4995275;28;102887;-47
2022/01/02 07:55:19;;;;;;;1.92;0.82;;;;;;;9.67;68.99;101809.28;4997058;28;102231;-50
2022/01/02 07:57:46;;;;;;;1.33;0.70;;;;;;;9.67;68.74;101806.56;4985271;28;104069;-48
2022/01/02 08:00:16;;;;;;;1.02;0.80;;;;;;;9.67;68.17;101810.09;4994754;28;102076;-46
2022/01/02 08:02:42;;;;;;;0.95;0.80;;;;;;;9.67;69.00;101810.09;4993330;28;102312;-48
2022/01/02 08:05:10;;;;;;;1.85;0.90;;;;;;;9.68;68.53;101814.47;4993688;28;102279;-49
2022/01/02 08:07:37;;;;;;;1.23;0.80;;;;;;;9.68;68.91;101811.75;4992660;28;103647;-49
2022/01/02 08:10:04;;;;;;;1.13;0.90;;;;;;;9.68;68.31;101808.22;4994435;28;102249;-49
2022/01/02 08:12:31;;;;;;;0.98;0.88;;;;;;;9.68;68.16;101810.94;4987444;28;103803;-48
2022/01/02 08:15:09;;;;;;;1.42;0.80;;;;;;;9.68;68.74;101817.19;4982680;28;102250;-45
2022/01/02 08:17:37;;;;;;;1.35;1.08;;;;;;;9.67;68.69;101809.28;4993041;28;103923;-47
2022/01/02 08:20:04;;;;;;;1.25;1.00;;;;;;;9.66;68.40;101813.88;4996254;28;102165;-47
2022/01/02 08:22:31;;;;;;;1.55;1.30;;;;;;;9.67;68.67;101820.97;4995650;28;102023;-46
2022/01/02 08:24:57;;;;;;;2.10;1.30;;;;;;;9.68;68.88;101833.50;4993543;28;102678;-47
2022/01/02 08:27:23;;;;;;;1.50;1.15;;;;;;;9.67;68.46;101822.88;4992053;28;103872;-47
2022/01/02 08:29:50;;;;;;;1.70;1.50;;;;;;;9.67;68.07;101826.41;4993861;28;102127;-46
2022/01/02 08:32:16;;;;;;;1.58;1.38;;;;;;;9.67;68.41;101837.28;4994441;28;102229;-46
2022/01/02 08:34:44;;;;;;;1.50;1.40;;;;;;;9.67;68.88;101837.28;4996427;28;103918;-48
2022/01/02 08:37:11;;;;;;;2.38;1.55;;;;;;;9.67;68.20;101840.00;4992718;28;103873;-47
2022/01/02 08:39:38;;;;;;;2.10;1.90;;;;;;;9.67;68.38;101831.84;4993266;28;103564;-46
2022/01/02 08:42:05;;;;;;;1.90;1.60;;;;;;;9.67;68.06;101837.28;4995986;28;102161;-46
2022/01/02 08:44:32;;;;;;;2.00;1.50;;;;;;;9.65;68.95;101842.13;4996854;28;102134;-46
2022/01/02 08:46:58;;;;;;;1.52;1.42;;;;;;;9.66;68.65;101846.47;4990967;28;104035;-48
2022/01/02 08:49:25;;;;;;;1.95;1.75;;;;;;;9.66;68.13;101846.47;4975173;28;102143;-46
2022/01/02 08:51:55;;;;;;;1.70;1.45;;;;;;;9.66;68.43;101849.19;4996906;28;102106;-50
2022/01/02 08:54:21;;;;;;;1.25;1.15;;;;;;;9.66;68.84;101854.63;4990693;28;102250;-48
2022/01/02 08:56:47;;;;;;;1.73;1.13;;;;;;;9.66;68.84;101841.03;4985640;28;105470;-46
2022/01/02 08:59:14;;;;;;;1.55;1.33;;;;;;;9.66;68.73;101846.47;4992833;28;102101;-45
2022/01/02 09:01:40;;;;;;;1.50;1.40;;;;;;;9.66;68.38;101841.03;4938986;28;103944;-48
2022/01/02 09:04:07;;;;;;;1.50;1.27;;;;;;;9.66;68.45;101829.34;4965661;28;104016;-47
2022/01/02 09:06:33;;;;;;;1.63;1.05;;;;;;;9.66;68.10;101835.59;4947561;28;104341;-46
2022/01/02 09:09:02;;;;;;;2.88;1.40;;;;;;;9.67;68.37;101826.41;4962146;28;104654;-46
2022/01/02 09:11:28;;;;;;;1.40;1.30;;;;;;;9.68;68.18;101832.66;4968286;28;102541;-49
2022/01/02 09:13:55;;;;;;;2.10;1.27;;;;;;;9.68;68.02;101848.97;4970107;28;102382;-48
2022/01/02 09:16:22;;;;;;;1.40;1.27;;;;;;;9.67;68.14;101850.88;4971230;28;104106;-46
2022/01/02 09:18:49;;;;;;;2.30;1.20;;;;;;;9.68;68.44;101844.38;4964715;28;104076;-48
2022/01/02 09:21:15;;;;;;;1.48;1.30;;;;;;;9.69;68.71;101848.72;4962583;28;102620;-48
2022/01/02 09:23:41;;;;;;;1.83;1.10;;;;;;;9.69;68.52;101845.19;4962703;28;102419;-47
2022/01/02 09:26:10;;;;;;;1.77;1.30;;;;;;;9.70;68.19;101857.69;4960941;28;104248;-46
2022/01/02 09:28:36;;;;;;;1.77;1.58;;;;;;;9.69;68.01;101851.44;4962492;28;106328;-47
2022/01/02 09:31:03;;;;;;;1.88;1.55;;;;;;;9.70;68.61;101861.28;4958272;28;102197;-49
2022/01/02 09:33:30;;;;;;;1.50;1.40;;;;;;;9.71;68.87;101862.91;4967881;28;102663;-46
2022/01/02 09:35:56;;;;;;;1.63;1.40;;;;;;;9.71;68.20;101865.63;4944059;28;103906;-45
2022/01/02 09:38:23;;;;;;;1.55;1.40;;;;;;;9.72;68.52;101861.84;4971868;28;102441;-46
2022/01/02 09:40:49;;;;;;;2.08;1.33;;;;;;;9.70;68.36;101855.84;4971554;28;104039;-45
2022/01/02 09:43:18;;;;;;;2.03;1.70;;;;;;;9.71;68.58;101854.75;4966499;28;102481;-46
2022/01/02 09:45:45;;;;;;;;;;;;;;;9.72;68.08;101844.72;4972537;28;104053;-46
2022/01/02 09:48:12;;;;;;;2.00;1.80;;;;;;;9.72;68.24;101845.53;4966456;28;102445;-46
2022/01/02 09:50:39;;;;;;;1.70;1.50;;;;;;;9.73;68.73;101849.06;4966440;28;103882;-45
2022/01/02 09:53:07;;;;;;;1.80;1.70;;;;;;;9.72;68.84;101845.53;4968688;28;102409;-46
2022/01/02 09:55:33;;;;;;;2.38;1.67;;;;;;;9.72;68.37;101840.09;4976054;28;103879;-46
2022/01/02 09:58:03;;;;;;;2.30;1.80;;;;;;;9.72;68.63;101834.66;4975829;28;102284;-45
2022/01/02 10:00:31;;;;;;;2.05;1.70;;;;;;;9.73;67.92;101841.75;4973113;28;103784;-46
2022/01/02 10:03:00;;;;;;;1.80;1.70;;;;;;;9.73;68.24;101841.75;4973930;28;102373;-48
2022/01/02 10:05:28;;;;;;;1.90;1.60;;;;;;;9.73;68.39;101847.19;4972817;28;104013;-47
2022/01/02 10:07:56;;;;;;;1.80;1.67;;;;;;;9.73;68.85;101852.63;4959933;28;102250;-47
2022/01/02 10:10:32;;;;;;;2.20;2.00;;;;;;;9.73;68.64;101844.47;4966543;28;102338;-49
2022/01/02 10:13:01;;;;;;;2.58;2.10;;;;;;;9.73;68.44;101852.63;4972725;28;102364;-47
2022/01/02 10:15:28;;;;;;;3.28;2.42;;;;;;;9.73;68.61;101844.47;4973922;28;103734;-46
2022/01/02 10:18:02;;;;;;;3.08;2.60;;;;;;;9.73;68.39;101852.63;4971626;28;102326;-47
2022/01/02 10:20:31;;;;;;;3.65;2.67;;;;;;;9.74;68.50;101845.31;4964214;28;103486;-45
2022/01/02 10:23:03;;;;;;;3.70;2.80;;;;;;;9.73;68.02;101843.63;4971741;28;102342;-45
2022/01/02 10:25:39;;;;;;;3.90;3.03;;;;;;;9.73;68.79;101841.75;4973503;28;103747;-46
2022/01/02 10:28:34;;;;;;;2.90;2.45;;;;;;;9.73;67.84;101844.47;4969725;28;102439;-47
2022/01/02 10:31:04;;;;;;;4.07;2.90;;;;;;;9.73;68.69;101838.19;4968559;28;102526;-45
2022/01/02 10:33:48;;;;;;;3.78;3.15;;;;;;;9.74;67.82;101842.59;4962419;28;102274;-47
2022/01/02 10:36:23;;;;;;;5.72;3.80;;;;;;;9.73;68.30;101836.31;4969089;28;107812;-48
2022/01/02 10:39:01;;;;;;;6.03;4.15;;;;;;;9.73;68.70;101846.34;4964082;28;102790;-45
2022/01/02 10:41:33;;;;;;;7.15;4.68;;;;;;;9.73;68.19;101846.34;4971980;28;102060;-49
2022/01/02 10:44:26;;;;;;;7.05;4.82;;;;;;;9.73;67.91;101854.50;4973057;28;102974;-46
2022/01/02 10:47:09;;;;;;;5.82;4.30;;;;;;;9.72;68.81;101845.53;4965054;28;103713;-46
2022/01/02 10:49:49;;;;;;;5.35;4.45;;;;;;;9.72;68.62;101839.28;4961913;28;104369;-46
2022/01/02 10:52:18;;;;;;;7.72;4.93;;;;;;;9.71;68.43;101833.03;4951313;28;104042;-46
2022/01/02 10:54:44;;;;;;;7.73;5.73;;;;;;;9.72;67.73;101823.78;4959409;28;103204;-47
2022/01/02 10:57:12;;;;;;;8.82;6.55;;;;;;;9.71;67.74;101827.59;4966390;28;103902;-48
2022/01/02 10:59:39;;;;;;;10.95;6.90;;;;;;;9.71;68.57;101827.59;4971693;28;102644;-48
2022/01/02 11:02:08;;;;;;;10.20;6.68;;;;;;;9.71;68.69;101832.19;4963749;28;102335;-46
2022/01/02 11:04:35;;;;;;;8.10;6.10;;;;;;;9.71;67.94;101838.44;4960946;28;102434;-47
2022/01/02 11:07:04;;;;;;;7.22;5.82;;;;;;;9.71;68.22;101830.31;4967857;28;103894;-46
2022/01/02 11:09:33;;;;;;;8.77;6.00;;;;;;;9.71;68.17;101832.19;4970920;28;102140;-46
2022/01/02 11:12:00;;;;;;;6.82;5.45;;;;;;;9.72;68.20;101818.34;4964950;28;103546;-45
2022/01/02 11:14:26;;;;;;;7.70;5.50;;;;;;;9.72;68.21;101802.03;4967399;28;102157;-45
2022/01/02 11:16:53;;;;;;;7.75;5.47;;;;;;;9.71;67.92;101805.00;4972004;28;103929;-45
2022/01/02 11:19:21;;;;;;;8.68;5.82;;;;;;;9.70;68.61;101809.63;4973680;28;102214;-47
2022/01/02 11:21:51;;;;;;;8.02;5.68;;;;;;;9.71;67.76;101816.72;4970874;28;102927;-49
2022/01/02 11:24:24;;;;;;;9.13;5.50;;;;;;;9.71;68.31;101814.00;4972363;28;102525;-46
2022/01/02 11:26:56;;;;;;;10.05;5.45;;;;;;;9.70;68.42;101809.63;4970152;28;107609;-46
2022/01/02 11:29:25;;;;;;;8.52;5.45;;;;;;;9.70;68.02;101812.34;4967535;28;102807;-45
2022/01/02 11:31:52;;;;;;;7.53;5.30;;;;;;;9.70;67.78;101809.63;4964178;28;102462;-46